sensor_id;sensor_type;location;lat;lon;timestamp;pressure;altitude;pressure_sealevel;temperature;humidity
19890;BME280;10107;51.198;6.824;2023-04-24T00:01:25;-21589.28;;;10.29;100.00
19890;BME280;10107;51.198;6.824;2023-04-24T00:05:29;-21587.69;;;10.23;100.00
19890;BME280;10107;51.198;6.824;2023-04-24T00:09:32;-21586.22;;;10.18;100.00
19890;BME280;10107;51.198;6.824;2023-04-24T00:13:34;-21585.16;;;10.14;100.00
19890;BME280;10107;51.198;6.824;2023-04-24T00:17:36;-21585.31;;;10.14;100.00
19890;BME280;10107;51.198;6.824;2023-04-24T00:21:37;-21584.63;;;10.11;100.00
19890;BME280;10107;51.198;6.824;2023-04-24T00:25:40;-21584.50;;;10.11;100.00
19890;BME280;10107;51.198;6.824;2023-04-24T00:29:42;-21583.72;;;10.08;100.00
19890;BME280;10107;51.198;6.824;2023-04-24T00:33:44;-21583.84;;;10.08;100.00
19890;BME280;10107;51.198;6.824;2023-04-24T00:37:45;-21585.69;;;10.16;100.00
19890;BME280;10107;51.198;6.824;2023-04-24T00:41:49;-21585.97;;;10.17;100.00
19890;BME280;10107;51.198;6.824;2023-04-24T00:45:51;-21587.03;;;10.21;100.00
19890;BME280;10107;51.198;6.824;2023-04-24T00:49:52;-21587.69;;;10.23;100.00
19890;BME280;10107;51.198;6.824;2023-04-24T00:53:54;-21588.47;;;10.26;100.00
19890;BME280;10107;51.198;6.824;2023-04-24T00:57:58;-21588.63;;;10.27;100.00
19890;BME280;10107;51.198;6.824;2023-04-24T01:02:00;-21588.22;;;10.25;100.00
19890;BME280;10107;51.198;6.824;2023-04-24T01:06:02;-21587.94;;;10.24;100.00
19890;BME280;10107;51.198;6.824;2023-04-24T01:10:05;-21587.69;;;10.23;100.00
19890;BME280;10107;51.198;6.824;2023-04-24T01:14:09;-21586.75;;;10.20;100.00
19890;BME280;10107;51.198;6.824;2023-04-24T01:18:11;-21584.63;;;10.11;100.00
19890;BME280;10107;51.198;6.824;2023-04-24T01:22:14;-21579.88;;;9.93;100.00
19890;BME280;10107;51.198;6.824;2023-04-24T01:26:16;-21573.91;;;9.70;100.00
19890;BME280;10107;51.198;6.824;2023-04-24T01:30:20;-21568.47;;;9.49;100.00
19890;BME280;10107;51.198;6.824;2023-04-24T01:34:22;-21563.94;;;9.31;100.00
19890;BME280;10107;51.198;6.824;2023-04-24T01:38:25;-21561.16;;;9.21;100.00
19890;BME280;10107;51.198;6.824;2023-04-24T01:42:27;-21558.63;;;9.11;100.00
19890;BME280;10107;51.198;6.824;2023-04-24T01:46:29;-21555.44;;;8.99;100.00
19890;BME280;10107;51.198;6.824;2023-04-24T01:50:32;-21553.19;;;8.90;100.00
19890;BME280;10107;51.198;6.824;2023-04-24T01:54:35;-21550.41;;;8.79;100.00
19890;BME280;10107;51.198;6.824;2023-04-24T01:58:36;-21549.47;;;8.76;100.00
19890;BME280;10107;51.198;6.824;2023-04-24T02:02:39;-21549.22;;;8.75;100.00
19890;BME280;10107;51.198;6.824;2023-04-24T02:06:41;-21550.00;;;8.78;100.00
19890;BME280;10107;51.198;6.824;2023-04-24T02:10:44;-21550.53;;;8.80;100.00
19890;BME280;10107;51.198;6.824;2023-04-24T02:14:46;-21549.59;;;8.76;100.00
19890;BME280;10107;51.198;6.824;2023-04-24T02:18:47;-21551.19;;;8.82;100.00
19890;BME280;10107;51.198;6.824;2023-04-24T02:22:51;-21553.31;;;8.90;100.00
19890;BME280;10107;51.198;6.824;2023-04-24T02:26:54;-21555.31;;;8.98;100.00
19890;BME280;10107;51.198;6.824;2023-04-24T02:30:56;-21556.91;;;9.04;100.00
19890;BME280;10107;51.198;6.824;2023-04-24T02:34:57;-21558.13;;;9.09;100.00
19890;BME280;10107;51.198;6.824;2023-04-24T02:39:01;-21559.69;;;9.15;100.00
19890;BME280;10107;51.198;6.824;2023-04-24T02:43:05;-21560.09;;;9.17;100.00
19890;BME280;10107;51.198;6.824;2023-04-24T02:47:07;-21561.03;;;9.20;100.00
19890;BME280;10107;51.198;6.824;2023-04-24T02:51:09;-21561.56;;;9.22;100.00
19890;BME280;10107;51.198;6.824;2023-04-24T02:55:11;-21561.44;;;9.22;100.00
19890;BME280;10107;51.198;6.824;2023-04-24T02:59:14;-21562.22;;;9.25;100.00
19890;BME280;10107;51.198;6.824;2023-04-24T03:03:15;-21562.09;;;9.24;100.00
19890;BME280;10107;51.198;6.824;2023-04-24T03:07:17;-21562.22;;;9.25;100.00
19890;BME280;10107;51.198;6.824;2023-04-24T03:11:21;-21563.28;;;9.29;100.00
19890;BME280;10107;51.198;6.824;2023-04-24T03:15:24;-21563.41;;;9.29;100.00
19890;BME280;10107;51.198;6.824;2023-04-24T03:19:26;-21563.69;;;9.30;100.00
19890;BME280;10107;51.198;6.824;2023-04-24T03:23:34;-21563.94;;;9.31;100.00
19890;BME280;10107;51.198;6.824;2023-04-24T03:27:36;-21564.47;;;9.34;100.00
19890;BME280;10107;51.198;6.824;2023-04-24T03:31:47;-21563.41;;;9.29;100.00
19890;BME280;10107;51.198;6.824;2023-04-24T03:35:50;-21562.88;;;9.27;100.00
19890;BME280;10107;51.198;6.824;2023-04-24T03:39:51;-21563.41;;;9.29;100.00
19890;BME280;10107;51.198;6.824;2023-04-24T03:43:58;-21563.41;;;9.29;100.00
19890;BME280;10107;51.198;6.824;2023-04-24T03:48:01;-21564.22;;;9.32;100.00
19890;BME280;10107;51.198;6.824;2023-04-24T03:52:04;-21563.16;;;9.28;100.00
19890;BME280;10107;51.198;6.824;2023-04-24T03:56:05;-21563.16;;;9.28;100.00
19890;BME280;10107;51.198;6.824;2023-04-24T04:00:09;-21563.56;;;9.30;100.00
19890;BME280;10107;51.198;6.824;2023-04-24T04:04:16;-21562.88;;;9.27;100.00
19890;BME280;10107;51.198;6.824;2023-04-24T04:08:19;-21563.03;;;9.28;100.00
19890;BME280;10107;51.198;6.824;2023-04-24T04:12:22;-21563.56;;;9.30;100.00
19890;BME280;10107;51.198;6.824;2023-04-24T04:16:24;-21563.69;;;9.30;100.00
19890;BME280;10107;51.198;6.824;2023-04-24T04:20:32;-21563.41;;;9.29;100.00
19890;BME280;10107;51.198;6.824;2023-04-24T04:24:34;-21562.75;;;9.27;100.00
19890;BME280;10107;51.198;6.824;2023-04-24T04:28:38;-21561.97;;;9.24;100.00
19890;BME280;10107;51.198;6.824;2023-04-24T04:32:40;-21561.69;;;9.23;100.00
19890;BME280;10107;51.198;6.824;2023-04-24T04:36:43;-21560.91;;;9.20;100.00
19890;BME280;10107;51.198;6.824;2023-04-24T04:41:00;-21560.38;;;9.18;100.00
19890;BME280;10107;51.198;6.824;2023-04-24T04:45:05;-21559.03;;;9.12;100.00
19890;BME280;10107;51.198;6.824;2023-04-24T04:49:20;-21559.69;;;9.15;100.00
19890;BME280;10107;51.198;6.824;2023-04-24T04:53:26;-21560.91;;;9.20;100.00
19890;BME280;10107;51.198;6.824;2023-04-24T04:57:28;-21560.22;;;9.17;100.00
19890;BME280;10107;51.198;6.824;2023-04-24T05:01:31;-21557.72;;;9.07;100.00
19890;BME280;10107;51.198;6.824;2023-04-24T05:05:32;-21557.03;;;9.05;100.00
19890;BME280;10107;51.198;6.824;2023-04-24T05:09:36;-21557.19;;;9.05;100.00
19890;BME280;10107;51.198;6.824;2023-04-24T05:13:40;-21557.31;;;9.06;100.00
19890;BME280;10107;51.198;6.824;2023-04-24T05:17:50;-21557.97;;;9.08;100.00
19890;BME280;10107;51.198;6.824;2023-04-24T05:21:52;-21558.91;;;9.12;100.00
19890;BME280;10107;51.198;6.824;2023-04-24T05:25:56;-21558.13;;;9.09;100.00
19890;BME280;10107;51.198;6.824;2023-04-24T05:29:59;-21557.19;;;9.05;100.00
19890;BME280;10107;51.198;6.824;2023-04-24T05:34:01;-21554.25;;;8.94;100.00
19890;BME280;10107;51.198;6.824;2023-04-24T05:38:02;-21552.13;;;8.86;100.00
19890;BME280;10107;51.198;6.824;2023-04-24T05:42:05;-21548.53;;;8.72;100.00
19890;BME280;10107;51.198;6.824;2023-04-24T05:46:07;-21546.41;;;8.64;100.00
19890;BME280;10107;51.198;6.824;2023-04-24T05:50:09;-21545.38;;;8.60;100.00
19890;BME280;10107;51.198;6.824;2023-04-24T05:54:11;-21545.09;;;8.59;100.00
19890;BME280;10107;51.198;6.824;2023-04-24T05:58:14;-21544.69;;;8.57;100.00
19890;BME280;10107;51.198;6.824;2023-04-24T06:02:17;-21544.81;;;8.58;100.00
19890;BME280;10107;51.198;6.824;2023-04-24T06:06:18;-21544.28;;;8.56;100.00
19890;BME280;10107;51.198;6.824;2023-04-24T06:10:20;-21545.09;;;8.59;100.00
19890;BME280;10107;51.198;6.824;2023-04-24T06:14:25;-21545.75;;;8.61;100.00
19890;BME280;10107;51.198;6.824;2023-04-24T06:19:05;-21547.22;;;8.67;100.00
19890;BME280;10107;51.198;6.824;2023-04-24T06:23:07;-21549.06;;;8.74;100.00
19890;BME280;10107;51.198;6.824;2023-04-24T06:27:09;-21548.81;;;8.73;100.00
19890;BME280;10107;51.198;6.824;2023-04-24T06:31:11;-21547.22;;;8.67;100.00
19890;BME280;10107;51.198;6.824;2023-04-24T06:35:13;-21544.81;;;8.58;100.00
19890;BME280;10107;51.198;6.824;2023-04-24T06:39:15;-21543.75;;;8.53;100.00
19890;BME280;10107;51.198;6.824;2023-04-24T06:43:16;-21545.50;;;8.60;100.00
19890;BME280;10107;51.198;6.824;2023-04-24T06:47:20;-21547.88;;;8.69;100.00
19890;BME280;10107;51.198;6.824;2023-04-24T06:51:22;-21548.41;;;8.71;100.00
19890;BME280;10107;51.198;6.824;2023-04-24T06:55:24;-21547.63;;;8.68;100.00
19890;BME280;10107;51.198;6.824;2023-04-24T06:59:26;-21546.03;;;8.62;100.00
19890;BME280;10107;51.198;6.824;2023-04-24T07:03:28;-21542.31;;;8.48;100.00
19890;BME280;10107;51.198;6.824;2023-04-24T07:07:30;-21541.09;;;8.43;100.00
19890;BME280;10107;51.198;6.824;2023-04-24T07:11:32;-21542.84;;;8.50;100.00
19890;BME280;10107;51.198;6.824;2023-04-24T07:15:34;-21546.41;;;8.64;100.00
19890;BME280;10107;51.198;6.824;2023-04-24T07:19:37;-21548.69;;;8.72;100.00
19890;BME280;10107;51.198;6.824;2023-04-24T07:23:39;-21548.53;;;8.72;100.00
19890;BME280;10107;51.198;6.824;2023-04-24T07:27:41;-21548.53;;;8.72;100.00
19890;BME280;10107;51.198;6.824;2023-04-24T07:31:43;-21544.56;;;8.57;100.00
19890;BME280;10107;51.198;6.824;2023-04-24T07:35:46;-21543.75;;;8.53;100.00
19890;BME280;10107;51.198;6.824;2023-04-24T07:39:48;-21539.50;;;8.37;100.00
19890;BME280;10107;51.198;6.824;2023-04-24T07:43:50;-21534.19;;;8.17;100.00
19890;BME280;10107;51.198;6.824;2023-04-24T07:47:52;-21527.69;;;7.91;100.00
19890;BME280;10107;51.198;6.824;2023-04-24T07:51:55;-21522.34;;;7.71;100.00
19890;BME280;10107;51.198;6.824;2023-04-24T07:55:57;-21515.69;;;7.45;100.00
19890;BME280;10107;51.198;6.824;2023-04-24T07:59:59;-21513.44;;;7.37;100.00
19890;BME280;10107;51.198;6.824;2023-04-24T08:04:00;-21513.69;;;7.38;100.00
19890;BME280;10107;51.198;6.824;2023-04-24T08:08:03;-21515.56;;;7.45;100.00
19890;BME280;10107;51.198;6.824;2023-04-24T08:12:05;-21516.09;;;7.47;100.00
19890;BME280;10107;51.198;6.824;2023-04-24T08:16:07;-21516.75;;;7.49;100.00
19890;BME280;10107;51.198;6.824;2023-04-24T08:20:10;-21516.38;;;7.48;100.00
19890;BME280;10107;51.198;6.824;2023-04-24T08:24:15;-21517.16;;;7.51;100.00
19890;BME280;10107;51.198;6.824;2023-04-24T08:28:16;-21520.09;;;7.62;100.00
19890;BME280;10107;51.198;6.824;2023-04-24T08:32:20;-21521.69;;;7.68;100.00
19890;BME280;10107;51.198;6.824;2023-04-24T08:36:22;-21520.63;;;7.64;100.00
19890;BME280;10107;51.198;6.824;2023-04-24T08:40:28;-21522.22;;;7.70;100.00
19890;BME280;10107;51.198;6.824;2023-04-24T08:44:31;-21527.00;;;7.89;100.00
19890;BME280;10107;51.198;6.824;2023-04-24T08:48:33;-21531.94;;;8.08;100.00
19890;BME280;10107;51.198;6.824;2023-04-24T08:52:35;-21531.78;;;8.07;100.00
19890;BME280;10107;51.198;6.824;2023-04-24T08:56:40;-21529.94;;;8.00;100.00
19890;BME280;10107;51.198;6.824;2023-04-24T09:00:45;-21532.59;;;8.10;100.00
19890;BME280;10107;51.198;6.824;2023-04-24T09:04:48;-21535.78;;;8.23;100.00
19890;BME280;10107;51.198;6.824;2023-04-24T09:08:52;-21539.38;;;8.37;100.00
19890;BME280;10107;51.198;6.824;2023-04-24T09:12:58;-21542.31;;;8.48;100.00
19890;BME280;10107;51.198;6.824;2023-04-24T09:17:02;-21541.63;;;8.45;100.00
19890;BME280;10107;51.198;6.824;2023-04-24T09:21:07;-21543.75;;;8.53;100.00
19890;BME280;10107;51.198;6.824;2023-04-24T09:25:09;-21544.44;;;8.56;100.00
19890;BME280;10107;51.198;6.824;2023-04-24T09:29:16;-21543.22;;;8.51;100.00
19890;BME280;10107;51.198;6.824;2023-04-24T09:33:18;-21541.09;;;8.43;100.00
19890;BME280;10107;51.198;6.824;2023-04-24T09:37:27;-21540.97;;;8.43;100.00
19890;BME280;10107;51.198;6.824;2023-04-24T09:41:31;-21540.97;;;8.43;100.00
19890;BME280;10107;51.198;6.824;2023-04-24T09:45:37;-21544.81;;;8.58;100.00
19890;BME280;10107;51.198;6.824;2023-04-24T09:49:39;-21551.47;;;8.83;100.00
19890;BME280;10107;51.198;6.824;2023-04-24T09:53:46;-21559.03;;;9.12;100.00
19890;BME280;10107;51.198;6.824;2023-04-24T09:57:55;-21562.88;;;9.27;100.00
19890;BME280;10107;51.198;6.824;2023-04-24T10:01:59;-21557.19;;;9.05;100.00
19890;BME280;10107;51.198;6.824;2023-04-24T10:06:01;-21561.97;;;9.24;100.00
19890;BME280;10107;51.198;6.824;2023-04-24T10:10:09;-21573.38;;;9.68;100.00
19890;BME280;10107;51.198;6.824;2023-04-24T10:14:12;-21582.38;;;10.03;100.00
19890;BME280;10107;51.198;6.824;2023-04-24T10:18:16;-21578.69;;;9.88;100.00
19890;BME280;10107;51.198;6.824;2023-04-24T10:22:18;-21576.16;;;9.79;100.00
19890;BME280;10107;51.198;6.824;2023-04-24T10:26:20;-21586.88;;;10.20;100.00
19890;BME280;10107;51.198;6.824;2023-04-24T10:30:23;-21594.97;;;10.52;100.00
19890;BME280;10107;51.198;6.824;2023-04-24T10:34:27;-21608.50;;;11.04;100.00
19890;BME280;10107;51.198;6.824;2023-04-24T10:38:30;-21610.22;;;11.10;100.00
19890;BME280;10107;51.198;6.824;2023-04-24T10:42:32;-21597.63;;;10.62;100.00
19890;BME280;10107;51.198;6.824;2023-04-24T10:46:34;-21594.97;;;10.52;100.00
19890;BME280;10107;51.198;6.824;2023-04-24T10:50:44;-21600.00;;;10.71;100.00
19890;BME280;10107;51.198;6.824;2023-04-24T10:54:47;-21600.28;;;10.72;100.00
19890;BME280;10107;51.198;6.824;2023-04-24T10:58:51;-21606.38;;;10.96;100.00
19890;BME280;10107;51.198;6.824;2023-04-24T11:02:54;-21625.81;;;11.71;100.00
19890;BME280;10107;51.198;6.824;2023-04-24T11:06:58;-21639.69;;;12.25;100.00
19890;BME280;10107;51.198;6.824;2023-04-24T11:11:03;-21636.25;;;12.12;100.00
19890;BME280;10107;51.198;6.824;2023-04-24T11:15:10;-21623.16;;;11.61;100.00
19890;BME280;10107;51.198;6.824;2023-04-24T11:19:21;-21604.38;;;10.88;100.00
19890;BME280;10107;51.198;6.824;2023-04-24T11:23:25;-21593.91;;;10.47;100.00
19890;BME280;10107;51.198;6.824;2023-04-24T11:27:29;-21593.66;;;10.46;100.00
19890;BME280;10107;51.198;6.824;2023-04-24T11:31:36;-21599.75;;;10.70;100.00
19890;BME280;10107;51.198;6.824;2023-04-24T11:35:40;-21605.19;;;10.91;100.00
19890;BME280;10107;51.198;6.824;2023-04-24T11:39:43;-21610.59;;;11.12;100.00
19890;BME280;10107;51.198;6.824;2023-04-24T11:43:45;-21627.28;;;11.77;100.00
19890;BME280;10107;51.198;6.824;2023-04-24T11:47:47;-21660.56;;;13.06;100.00
19890;BME280;10107;51.198;6.824;2023-04-24T11:51:49;-21670.59;;;13.45;98.27
19890;BME280;10107;51.198;6.824;2023-04-24T11:55:52;-21653.44;;;12.78;99.66
19890;BME280;10107;51.198;6.824;2023-04-24T11:59:54;-21632.97;;;11.99;100.00
19890;BME280;10107;51.198;6.824;2023-04-24T12:03:59;-21618.53;;;11.43;100.00
19890;BME280;10107;51.198;6.824;2023-04-24T12:08:01;-21607.03;;;10.98;100.00
19890;BME280;10107;51.198;6.824;2023-04-24T12:12:06;-21619.19;;;11.45;100.00
19890;BME280;10107;51.198;6.824;2023-04-24T12:16:08;-21668.06;;;13.35;96.53
19890;BME280;10107;51.198;6.824;2023-04-24T12:20:10;-21669.13;;;13.39;98.07
19890;BME280;10107;51.198;6.824;2023-04-24T12:24:12;-21681.00;;;13.85;94.68
19890;BME280;10107;51.198;6.824;2023-04-24T12:28:15;-21687.31;;;14.10;89.95
19890;BME280;10107;51.198;6.824;2023-04-24T12:32:17;-21683.50;;;13.95;84.94
19890;BME280;10107;51.198;6.824;2023-04-24T12:36:21;-21683.75;;;13.96;81.49
19890;BME280;10107;51.198;6.824;2023-04-24T12:40:25;-21688.50;;;14.15;82.44
19890;BME280;10107;51.198;6.824;2023-04-24T12:44:31;-21686.00;;;14.05;78.93
19890;BME280;10107;51.198;6.824;2023-04-24T12:48:34;-21680.06;;;13.82;80.47
19890;BME280;10107;51.198;6.824;2023-04-24T12:52:36;-21704.44;;;14.77;73.37
19890;BME280;10107;51.198;6.824;2023-04-24T12:56:39;-21712.59;;;15.09;70.06
19890;BME280;10107;51.198;6.824;2023-04-24T13:00:42;-21709.97;;;14.98;70.30
19890;BME280;10107;51.198;6.824;2023-04-24T13:04:46;-21694.81;;;14.39;68.70
19890;BME280;10107;51.198;6.824;2023-04-24T13:08:48;-21690.09;;;14.21;69.98
19890;BME280;10107;51.198;6.824;2023-04-24T13:12:50;-21697.06;;;14.48;73.07
19890;BME280;10107;51.198;6.824;2023-04-24T13:16:52;-21697.44;;;14.50;70.37
19890;BME280;10107;51.198;6.824;2023-04-24T13:20:55;-21690.09;;;14.21;69.24
19890;BME280;10107;51.198;6.824;2023-04-24T13:24:56;-21686.91;;;14.09;69.70
19890;BME280;10107;51.198;6.824;2023-04-24T13:28:58;-21684.94;;;14.01;68.54
19890;BME280;10107;51.198;6.824;2023-04-24T13:33:01;-21690.09;;;14.21;69.36
19890;BME280;10107;51.198;6.824;2023-04-24T13:37:03;-21705.09;;;14.79;66.72
19890;BME280;10107;51.198;6.824;2023-04-24T13:41:05;-21714.94;;;15.18;66.61
19890;BME280;10107;51.198;6.824;2023-04-24T13:45:08;-21702.47;;;14.69;66.54
19890;BME280;10107;51.198;6.824;2023-04-24T13:49:11;-21699.44;;;14.57;68.85
19890;BME280;10107;51.198;6.824;2023-04-24T13:53:13;-21706.94;;;14.87;68.30
19890;BME280;10107;51.198;6.824;2023-04-24T13:57:15;-21697.84;;;14.51;67.97
19890;BME280;10107;51.198;6.824;2023-04-24T14:01:20;-21686.66;;;14.07;71.36
19890;BME280;10107;51.198;6.824;2023-04-24T14:05:25;-21677.97;;;13.74;71.17
19890;BME280;10107;51.198;6.824;2023-04-24T14:09:27;-21661.59;;;13.10;72.58
19890;BME280;10107;51.198;6.824;2023-04-24T14:13:29;-21653.97;;;12.80;74.93
19890;BME280;10107;51.198;6.824;2023-04-24T14:17:31;-21658.19;;;12.97;75.74
19890;BME280;10107;51.198;6.824;2023-04-24T14:21:34;-21663.72;;;13.18;73.09
19890;BME280;10107;51.198;6.824;2023-04-24T14:25:36;-21671.63;;;13.49;71.72
19890;BME280;10107;51.198;6.824;2023-04-24T14:29:37;-21679.03;;;13.78;70.37
19890;BME280;10107;51.198;6.824;2023-04-24T14:33:39;-21674.66;;;13.61;68.56
19890;BME280;10107;51.198;6.824;2023-04-24T14:37:42;-21672.16;;;13.51;68.73
19890;BME280;10107;51.198;6.824;2023-04-24T14:41:44;-21673.63;;;13.57;69.18
19890;BME280;10107;51.198;6.824;2023-04-24T14:45:46;-21678.75;;;13.77;70.12
19890;BME280;10107;51.198;6.824;2023-04-24T14:49:48;-21685.47;;;14.03;66.92
19890;BME280;10107;51.198;6.824;2023-04-24T14:53:51;-21692.59;;;14.31;65.55
19890;BME280;10107;51.198;6.824;2023-04-24T14:57:53;-21686.41;;;14.06;66.02
19890;BME280;10107;51.198;6.824;2023-04-24T15:01:55;-21689.69;;;14.19;67.72
19890;BME280;10107;51.198;6.824;2023-04-24T15:05:58;-21691.53;;;14.26;65.82
19890;BME280;10107;51.198;6.824;2023-04-24T15:10:01;-21700.88;;;14.63;66.93
19890;BME280;10107;51.198;6.824;2023-04-24T15:14:03;-21699.97;;;14.59;64.48
19890;BME280;10107;51.198;6.824;2023-04-24T15:18:05;-21692.44;;;14.30;63.48
19890;BME280;10107;51.198;6.824;2023-04-24T15:22:09;-21673.22;;;13.55;65.25
19890;BME280;10107;51.198;6.824;2023-04-24T15:26:12;-21656.59;;;12.91;67.69
19890;BME280;10107;51.198;6.824;2023-04-24T15:30:14;-21657.25;;;12.93;69.55
19890;BME280;10107;51.198;6.824;2023-04-24T15:34:15;-21660.28;;;13.05;68.93
19890;BME280;10107;51.198;6.824;2023-04-24T15:38:17;-21662.78;;;13.15;70.11
19890;BME280;10107;51.198;6.824;2023-04-24T15:42:20;-21664.38;;;13.21;70.20
19890;BME280;10107;51.198;6.824;2023-04-24T15:46:21;-21660.16;;;13.04;71.70
19890;BME280;10107;51.198;6.824;2023-04-24T15:50:23;-21663.31;;;13.17;72.51
19890;BME280;10107;51.198;6.824;2023-04-24T15:54:25;-21660.03;;;13.04;71.05
19890;BME280;10107;51.198;6.824;2023-04-24T15:58:28;-21661.22;;;13.08;68.87
19890;BME280;10107;51.198;6.824;2023-04-24T16:02:30;-21663.72;;;13.18;69.08
19890;BME280;10107;51.198;6.824;2023-04-24T16:06:31;-21668.88;;;13.38;69.99
19890;BME280;10107;51.198;6.824;2023-04-24T16:10:33;-21666.22;;;13.28;68.04
19890;BME280;10107;51.198;6.824;2023-04-24T16:14:36;-21658.31;;;12.97;67.70
19890;BME280;10107;51.198;6.824;2023-04-24T16:18:38;-21653.97;;;12.80;68.85
19890;BME280;10107;51.198;6.824;2023-04-24T16:22:39;-21655.16;;;12.85;67.64
19890;BME280;10107;51.198;6.824;2023-04-24T16:26:41;-21651.97;;;12.73;69.36
19890;BME280;10107;51.198;6.824;2023-04-24T16:30:44;-21652.91;;;12.76;69.33
19890;BME280;10107;51.198;6.824;2023-04-24T16:34:46;-21651.06;;;12.69;70.88
19890;BME280;10107;51.198;6.824;2023-04-24T16:38:48;-21646.56;;;12.52;70.60
19890;BME280;10107;51.198;6.824;2023-04-24T16:42:50;-21640.22;;;12.27;72.70
19890;BME280;10107;51.198;6.824;2023-04-24T16:46:53;-21636.53;;;12.13;77.59
19890;BME280;10107;51.198;6.824;2023-04-24T16:50:55;-21635.47;;;12.08;77.19
19890;BME280;10107;51.198;6.824;2023-04-24T16:54:57;-21632.81;;;11.98;80.28
19890;BME280;10107;51.198;6.824;2023-04-24T16:58:59;-21628.47;;;11.81;82.27
19890;BME280;10107;51.198;6.824;2023-04-24T17:03:02;-21623.16;;;11.61;82.94
19890;BME280;10107;51.198;6.824;2023-04-24T17:07:04;-21619.72;;;11.47;84.55
19890;BME280;10107;51.198;6.824;2023-04-24T17:11:06;-21620.78;;;11.52;85.55
19890;BME280;10107;51.198;6.824;2023-04-24T17:15:08;-21624.63;;;11.66;84.80
19890;BME280;10107;51.198;6.824;2023-04-24T17:19:13;-21625.81;;;11.71;84.26
19890;BME280;10107;51.198;6.824;2023-04-24T17:23:15;-21620.53;;;11.50;83.50
19890;BME280;10107;51.198;6.824;2023-04-24T17:27:18;-21616.16;;;11.34;83.80
19890;BME280;10107;51.198;6.824;2023-04-24T17:31:21;-21616.16;;;11.34;83.66
19890;BME280;10107;51.198;6.824;2023-04-24T17:35:24;-21616.03;;;11.33;82.59
19890;BME280;10107;51.198;6.824;2023-04-24T17:39:26;-21610.59;;;11.12;82.23
19890;BME280;10107;51.198;6.824;2023-04-24T17:43:28;-21604.91;;;10.90;84.09
19890;BME280;10107;51.198;6.824;2023-04-24T17:47:30;-21599.09;;;10.67;84.59
19890;BME280;10107;51.198;6.824;2023-04-24T17:51:33;-21595.25;;;10.53;84.08
19890;BME280;10107;51.198;6.824;2023-04-24T17:55:35;-21594.59;;;10.50;83.44
19890;BME280;10107;51.198;6.824;2023-04-24T17:59:38;-21594.19;;;10.48;83.05
19890;BME280;10107;51.198;6.824;2023-04-24T18:03:40;-21592.59;;;10.42;84.46
19890;BME280;10107;51.198;6.824;2023-04-24T18:07:44;-21589.16;;;10.29;85.09
19890;BME280;10107;51.198;6.824;2023-04-24T18:11:45;-21585.69;;;10.16;86.46
19890;BME280;10107;51.198;6.824;2023-04-24T18:15:48;-21582.00;;;10.01;87.90
19890;BME280;10107;51.198;6.824;2023-04-24T18:19:50;-21579.34;;;9.91;89.09
19890;BME280;10107;51.198;6.824;2023-04-24T18:23:54;-21576.28;;;9.79;90.51
19890;BME280;10107;51.198;6.824;2023-04-24T18:27:59;-21571.91;;;9.62;93.82
19890;BME280;10107;51.198;6.824;2023-04-24T18:32:01;-21567.66;;;9.46;96.37
19890;BME280;10107;51.198;6.824;2023-04-24T18:36:05;-21564.88;;;9.35;97.75
19890;BME280;10107;51.198;6.824;2023-04-24T18:40:09;-21561.97;;;9.24;99.50
19890;BME280;10107;51.198;6.824;2023-04-24T18:44:10;-21559.03;;;9.12;100.00
19890;BME280;10107;51.198;6.824;2023-04-24T18:48:12;-21556.38;;;9.02;100.00
19890;BME280;10107;51.198;6.824;2023-04-24T18:52:14;-21556.66;;;9.03;100.00
19890;BME280;10107;51.198;6.824;2023-04-24T18:56:17;-21557.97;;;9.08;100.00
19890;BME280;10107;51.198;6.824;2023-04-24T19:00:19;-21559.16;;;9.13;100.00
19890;BME280;10107;51.198;6.824;2023-04-24T19:04:26;-21559.03;;;9.12;100.00
19890;BME280;10107;51.198;6.824;2023-04-24T19:08:31;-21557.72;;;9.07;100.00
19890;BME280;10107;51.198;6.824;2023-04-24T19:12:34;-21556.50;;;9.03;100.00
19890;BME280;10107;51.198;6.824;2023-04-24T19:16:36;-21555.44;;;8.99;100.00
19890;BME280;10107;51.198;6.824;2023-04-24T19:20:38;-21555.19;;;8.98;100.00
19890;BME280;10107;51.198;6.824;2023-04-24T19:24:39;-21552.53;;;8.87;100.00
19890;BME280;10107;51.198;6.824;2023-04-24T19:28:42;-21548.69;;;8.72;100.00
19890;BME280;10107;51.198;6.824;2023-04-24T19:32:44;-21544.81;;;8.58;100.00
19890;BME280;10107;51.198;6.824;2023-04-24T19:36:46;-21541.09;;;8.43;100.00
19890;BME280;10107;51.198;6.824;2023-04-24T19:40:48;-21538.03;;;8.31;100.00
19890;BME280;10107;51.198;6.824;2023-04-24T19:44:51;-21537.13;;;8.28;100.00
19890;BME280;10107;51.198;6.824;2023-04-24T19:48:53;-21536.19;;;8.24;100.00
19890;BME280;10107;51.198;6.824;2023-04-24T19:52:55;-21536.31;;;8.25;100.00
19890;BME280;10107;51.198;6.824;2023-04-24T19:56:59;-21536.84;;;8.27;100.00
19890;BME280;10107;51.198;6.824;2023-04-24T20:01:06;-21535.66;;;8.22;100.00
19890;BME280;10107;51.198;6.824;2023-04-24T20:05:08;-21533.91;;;8.16;100.00
19890;BME280;10107;51.198;6.824;2023-04-24T20:09:10;-21532.06;;;8.08;100.00
19890;BME280;10107;51.198;6.824;2023-04-24T20:13:13;-21529.66;;;7.99;100.00
19890;BME280;10107;51.198;6.824;2023-04-24T20:17:16;-21527.53;;;7.91;100.00
19890;BME280;10107;51.198;6.824;2023-04-24T20:21:18;-21525.69;;;7.84;100.00
19890;BME280;10107;51.198;6.824;2023-04-24T20:25:20;-21524.09;;;7.78;100.00
19890;BME280;10107;51.198;6.824;2023-04-24T20:29:22;-21522.34;;;7.71;100.00
19890;BME280;10107;51.198;6.824;2023-04-24T20:33:26;-21521.97;;;7.69;100.00
19890;BME280;10107;51.198;6.824;2023-04-24T20:37:30;-21521.03;;;7.66;100.00
19890;BME280;10107;51.198;6.824;2023-04-24T20:41:32;-21519.97;;;7.62;100.00
19890;BME280;10107;51.198;6.824;2023-04-24T20:45:35;-21517.84;;;7.53;100.00
19890;BME280;10107;51.198;6.824;2023-04-24T20:49:38;-21516.09;;;7.47;100.00
19890;BME280;10107;51.198;6.824;2023-04-24T20:53:40;-21515.16;;;7.43;100.00
19890;BME280;10107;51.198;6.824;2023-04-24T20:57:42;-21513.16;;;7.36;100.00
19890;BME280;10107;51.198;6.824;2023-04-24T21:01:43;-21510.63;;;7.26;100.00
19890;BME280;10107;51.198;6.824;2023-04-24T21:05:47;-21509.56;;;7.22;100.00